sensor_id;sensor_type;location;lat;lon;timestamp;P1;durP1;ratioP1;P2;durP2;ratioP2
21274;SDS011;36472;52.170;20.884;2023-11-19T00:02:07;43.00;;;23.05;;
21274;SDS011;36472;52.170;20.884;2023-11-19T00:04:36;43.72;;;23.67;;
21274;SDS011;36472;52.170;20.884;2023-11-19T00:07:06;42.22;;;24.23;;
21274;SDS011;36472;52.170;20.884;2023-11-19T00:09:37;45.03;;;25.17;;
21274;SDS011;36472;52.170;20.884;2023-11-19T00:12:06;43.95;;;25.38;;
21274;SDS011;36472;52.170;20.884;2023-11-19T00:14:37;44.53;;;23.67;;
21274;SDS011;36472;52.170;20.884;2023-11-19T00:17:06;42.17;;;23.17;;
21274;SDS011;36472;52.170;20.884;2023-11-19T00:19:35;41.65;;;23.00;;
21274;SDS011;36472;52.170;20.884;2023-11-19T00:22:03;43.10;;;22.23;;
21274;SDS011;36472;52.170;20.884;2023-11-19T00:24:33;42.67;;;23.65;;
21274;SDS011;36472;52.170;20.884;2023-11-19T00:27:02;41.40;;;24.55;;
21274;SDS011;36472;52.170;20.884;2023-11-19T00:29:31;43.08;;;23.58;;
21274;SDS011;36472;52.170;20.884;2023-11-19T00:32:01;36.33;;;21.88;;
21274;SDS011;36472;52.170;20.884;2023-11-19T00:34:32;43.03;;;22.10;;
21274;SDS011;36472;52.170;20.884;2023-11-19T00:37:01;41.13;;;23.48;;
21274;SDS011;36472;52.170;20.884;2023-11-19T00:39:31;44.42;;;25.73;;
21274;SDS011;36472;52.170;20.884;2023-11-19T00:42:00;42.97;;;26.33;;
21274;SDS011;36472;52.170;20.884;2023-11-19T00:44:29;43.03;;;23.05;;
21274;SDS011;36472;52.170;20.884;2023-11-19T00:46:58;43.08;;;23.50;;
21274;SDS011;36472;52.170;20.884;2023-11-19T00:49:29;39.15;;;21.08;;
21274;SDS011;36472;52.170;20.884;2023-11-19T00:51:59;40.15;;;22.23;;
21274;SDS011;36472;52.170;20.884;2023-11-19T00:54:29;43.08;;;25.58;;
21274;SDS011;36472;52.170;20.884;2023-11-19T00:56:58;40.28;;;22.85;;
21274;SDS011;36472;52.170;20.884;2023-11-19T00:59:28;48.38;;;25.23;;
21274;SDS011;36472;52.170;20.884;2023-11-19T01:01:57;41.17;;;24.48;;
21274;SDS011;36472;52.170;20.884;2023-11-19T01:04:34;43.88;;;24.58;;
21274;SDS011;36472;52.170;20.884;2023-11-19T01:07:04;45.92;;;26.80;;
21274;SDS011;36472;52.170;20.884;2023-11-19T01:09:33;44.22;;;26.88;;
21274;SDS011;36472;52.170;20.884;2023-11-19T01:12:03;47.15;;;27.50;;
21274;SDS011;36472;52.170;20.884;2023-11-19T01:14:33;42.60;;;23.10;;
21274;SDS011;36472;52.170;20.884;2023-11-19T01:17:03;49.45;;;26.77;;
21274;SDS011;36472;52.170;20.884;2023-11-19T01:19:36;56.03;;;28.50;;
21274;SDS011;36472;52.170;20.884;2023-11-19T01:22:05;53.50;;;28.42;;
21274;SDS011;36472;52.170;20.884;2023-11-19T01:24:34;49.42;;;26.40;;
21274;SDS011;36472;52.170;20.884;2023-11-19T01:27:03;46.03;;;25.83;;
21274;SDS011;36472;52.170;20.884;2023-11-19T01:29:32;46.40;;;24.67;;
21274;SDS011;36472;52.170;20.884;2023-11-19T01:32:01;47.85;;;25.77;;
21274;SDS011;36472;52.170;20.884;2023-11-19T01:34:30;46.38;;;24.42;;
21274;SDS011;36472;52.170;20.884;2023-11-19T01:37:01;50.35;;;26.73;;
21274;SDS011;36472;52.170;20.884;2023-11-19T01:39:30;49.40;;;27.42;;
21274;SDS011;36472;52.170;20.884;2023-11-19T01:41:59;59.25;;;29.13;;
21274;SDS011;36472;52.170;20.884;2023-11-19T01:44:28;57.20;;;28.98;;
21274;SDS011;36472;52.170;20.884;2023-11-19T01:46:57;48.88;;;26.88;;
21274;SDS011;36472;52.170;20.884;2023-11-19T01:49:26;48.83;;;25.48;;
21274;SDS011;36472;52.170;20.884;2023-11-19T01:51:55;52.35;;;28.35;;
21274;SDS011;36472;52.170;20.884;2023-11-19T01:54:28;44.97;;;26.35;;
21274;SDS011;36472;52.170;20.884;2023-11-19T01:56:57;49.47;;;27.10;;
21274;SDS011;36472;52.170;20.884;2023-11-19T01:59:25;50.35;;;28.23;;
21274;SDS011;36472;52.170;20.884;2023-11-19T02:01:54;48.08;;;27.30;;
21274;SDS011;36472;52.170;20.884;2023-11-19T02:04:27;44.33;;;26.95;;
21274;SDS011;36472;52.170;20.884;2023-11-19T02:06:56;43.70;;;27.75;;
21274;SDS011;36472;52.170;20.884;2023-11-19T02:09:28;43.45;;;23.63;;
21274;SDS011;36472;52.170;20.884;2023-11-19T02:11:57;41.72;;;23.73;;
21274;SDS011;36472;52.170;20.884;2023-11-19T02:14:26;43.15;;;22.85;;
21274;SDS011;36472;52.170;20.884;2023-11-19T02:16:55;42.53;;;24.45;;
21274;SDS011;36472;52.170;20.884;2023-11-19T02:19:24;44.88;;;26.88;;
21274;SDS011;36472;52.170;20.884;2023-11-19T02:21:53;49.97;;;27.10;;
21274;SDS011;36472;52.170;20.884;2023-11-19T02:24:23;45.05;;;23.42;;
21274;SDS011;36472;52.170;20.884;2023-11-19T02:27:01;43.60;;;26.38;;
21274;SDS011;36472;52.170;20.884;2023-11-19T02:29:40;42.83;;;24.67;;
21274;SDS011;36472;52.170;20.884;2023-11-19T02:32:09;41.88;;;25.30;;
21274;SDS011;36472;52.170;20.884;2023-11-19T02:34:40;42.78;;;22.98;;
21274;SDS011;36472;52.170;20.884;2023-11-19T02:37:09;41.42;;;22.08;;
21274;SDS011;36472;52.170;20.884;2023-11-19T02:39:39;42.80;;;21.63;;
21274;SDS011;36472;52.170;20.884;2023-11-19T02:42:09;41.70;;;24.05;;
21274;SDS011;36472;52.170;20.884;2023-11-19T02:44:39;38.53;;;21.15;;
21274;SDS011;36472;52.170;20.884;2023-11-19T02:47:12;42.25;;;22.48;;
21274;SDS011;36472;52.170;20.884;2023-11-19T02:49:41;37.97;;;21.00;;
21274;SDS011;36472;52.170;20.884;2023-11-19T02:52:10;41.58;;;22.85;;
21274;SDS011;36472;52.170;20.884;2023-11-19T02:54:40;36.67;;;21.25;;
21274;SDS011;36472;52.170;20.884;2023-11-19T02:57:10;38.75;;;22.70;;
21274;SDS011;36472;52.170;20.884;2023-11-19T02:59:50;39.00;;;22.67;;
21274;SDS011;36472;52.170;20.884;2023-11-19T03:02:19;37.72;;;21.02;;
21274;SDS011;36472;52.170;20.884;2023-11-19T03:04:48;42.15;;;21.75;;
21274;SDS011;36472;52.170;20.884;2023-11-19T03:07:17;36.20;;;20.67;;
21274;SDS011;36472;52.170;20.884;2023-11-19T03:09:46;34.80;;;19.88;;
21274;SDS011;36472;52.170;20.884;2023-11-19T03:12:16;38.10;;;22.77;;
21274;SDS011;36472;52.170;20.884;2023-11-19T03:14:45;38.25;;;20.40;;
21274;SDS011;36472;52.170;20.884;2023-11-19T03:17:16;36.35;;;20.15;;
21274;SDS011;36472;52.170;20.884;2023-11-19T03:19:46;36.67;;;18.75;;
21274;SDS011;36472;52.170;20.884;2023-11-19T03:22:15;32.55;;;18.85;;
21274;SDS011;36472;52.170;20.884;2023-11-19T03:24:44;33.95;;;18.92;;
21274;SDS011;36472;52.170;20.884;2023-11-19T03:27:13;37.53;;;22.38;;
21274;SDS011;36472;52.170;20.884;2023-11-19T03:29:43;37.00;;;19.63;;
21274;SDS011;36472;52.170;20.884;2023-11-19T03:32:12;36.83;;;20.65;;
21274;SDS011;36472;52.170;20.884;2023-11-19T03:34:43;39.22;;;21.20;;
21274;SDS011;36472;52.170;20.884;2023-11-19T03:37:12;35.80;;;19.92;;
21274;SDS011;36472;52.170;20.884;2023-11-19T03:39:43;34.50;;;19.17;;
21274;SDS011;36472;52.170;20.884;2023-11-19T03:42:12;33.35;;;18.65;;
21274;SDS011;36472;52.170;20.884;2023-11-19T03:44:41;35.63;;;18.40;;
21274;SDS011;36472;52.170;20.884;2023-11-19T03:47:10;39.45;;;20.35;;
21274;SDS011;36472;52.170;20.884;2023-11-19T03:49:39;37.25;;;18.95;;
21274;SDS011;36472;52.170;20.884;2023-11-19T03:52:10;38.17;;;21.73;;
21274;SDS011;36472;52.170;20.884;2023-11-19T03:54:47;37.65;;;20.10;;
21274;SDS011;36472;52.170;20.884;2023-11-19T03:57:15;39.72;;;19.58;;
21274;SDS011;36472;52.170;20.884;2023-11-19T03:59:46;43.15;;;21.23;;
21274;SDS011;36472;52.170;20.884;2023-11-19T04:02:15;41.15;;;20.60;;
21274;SDS011;36472;52.170;20.884;2023-11-19T04:04:44;39.95;;;21.65;;
21274;SDS011;36472;52.170;20.884;2023-11-19T04:07:15;40.50;;;23.05;;
21274;SDS011;36472;52.170;20.884;2023-11-19T04:09:44;41.92;;;22.42;;
21274;SDS011;36472;52.170;20.884;2023-11-19T04:12:13;39.40;;;20.73;;
21274;SDS011;36472;52.170;20.884;2023-11-19T04:14:43;42.92;;;21.45;;
21274;SDS011;36472;52.170;20.884;2023-11-19T04:17:11;42.53;;;20.90;;
21274;SDS011;36472;52.170;20.884;2023-11-19T04:19:41;38.78;;;19.42;;
21274;SDS011;36472;52.170;20.884;2023-11-19T04:22:10;39.00;;;20.98;;
21274;SDS011;36472;52.170;20.884;2023-11-19T04:24:40;46.38;;;22.58;;
21274;SDS011;36472;52.170;20.884;2023-11-19T04:27:10;45.33;;;23.17;;
21274;SDS011;36472;52.170;20.884;2023-11-19T04:29:40;47.40;;;22.98;;
21274;SDS011;36472;52.170;20.884;2023-11-19T04:32:08;45.63;;;21.70;;
21274;SDS011;36472;52.170;20.884;2023-11-19T04:34:37;44.70;;;24.15;;
21274;SDS011;36472;52.170;20.884;2023-11-19T04:37:06;41.55;;;22.98;;
21274;SDS011;36472;52.170;20.884;2023-11-19T04:39:41;40.75;;;23.08;;
21274;SDS011;36472;52.170;20.884;2023-11-19T04:42:13;41.75;;;21.60;;
21274;SDS011;36472;52.170;20.884;2023-11-19T04:44:44;36.75;;;20.35;;
21274;SDS011;36472;52.170;20.884;2023-11-19T04:47:13;37.67;;;18.98;;
21274;SDS011;36472;52.170;20.884;2023-11-19T04:49:42;36.20;;;20.55;;
21274;SDS011;36472;52.170;20.884;2023-11-19T04:52:11;36.53;;;18.92;;
21274;SDS011;36472;52.170;20.884;2023-11-19T04:54:42;36.10;;;20.50;;
21274;SDS011;36472;52.170;20.884;2023-11-19T04:57:12;38.70;;;21.13;;
21274;SDS011;36472;52.170;20.884;2023-11-19T04:59:40;40.90;;;21.77;;
21274;SDS011;36472;52.170;20.884;2023-11-19T05:02:10;40.97;;;20.00;;
21274;SDS011;36472;52.170;20.884;2023-11-19T05:04:42;41.92;;;21.52;;
21274;SDS011;36472;52.170;20.884;2023-11-19T05:07:11;39.10;;;20.88;;
21274;SDS011;36472;52.170;20.884;2023-11-19T05:09:40;39.95;;;21.08;;
21274;SDS011;36472;52.170;20.884;2023-11-19T05:12:11;39.83;;;20.27;;
21274;SDS011;36472;52.170;20.884;2023-11-19T05:14:40;37.83;;;19.70;;
21274;SDS011;36472;52.170;20.884;2023-11-19T05:17:15;40.38;;;21.15;;
21274;SDS011;36472;52.170;20.884;2023-11-19T05:19:44;39.70;;;19.15;;
21274;SDS011;36472;52.170;20.884;2023-11-19T05:22:15;41.92;;;20.88;;
21274;SDS011;36472;52.170;20.884;2023-11-19T05:24:47;43.70;;;20.35;;
21274;SDS011;36472;52.170;20.884;2023-11-19T05:27:18;41.28;;;21.88;;
21274;SDS011;36472;52.170;20.884;2023-11-19T05:29:47;45.28;;;21.85;;
21274;SDS011;36472;52.170;20.884;2023-11-19T05:32:16;47.78;;;25.45;;
21274;SDS011;36472;52.170;20.884;2023-11-19T05:34:45;47.63;;;24.05;;
21274;SDS011;36472;52.170;20.884;2023-11-19T05:37:17;42.85;;;22.88;;
21274;SDS011;36472;52.170;20.884;2023-11-19T05:39:46;45.97;;;24.50;;
21274;SDS011;36472;52.170;20.884;2023-11-19T05:42:15;41.13;;;20.50;;
21274;SDS011;36472;52.170;20.884;2023-11-19T05:44:46;42.38;;;21.95;;
21274;SDS011;36472;52.170;20.884;2023-11-19T05:47:15;46.10;;;22.83;;
21274;SDS011;36472;52.170;20.884;2023-11-19T05:49:44;42.03;;;19.85;;
21274;SDS011;36472;52.170;20.884;2023-11-19T05:52:13;42.92;;;20.95;;
21274;SDS011;36472;52.170;20.884;2023-11-19T05:54:42;42.60;;;20.85;;
21274;SDS011;36472;52.170;20.884;2023-11-19T05:57:11;38.72;;;20.15;;
21274;SDS011;36472;52.170;20.884;2023-11-19T05:59:41;40.05;;;22.02;;
21274;SDS011;36472;52.170;20.884;2023-11-19T06:02:12;39.75;;;20.65;;
21274;SDS011;36472;52.170;20.884;2023-11-19T06:04:41;38.42;;;19.67;;
21274;SDS011;36472;52.170;20.884;2023-11-19T06:07:11;39.53;;;18.75;;
21274;SDS011;36472;52.170;20.884;2023-11-19T06:09:40;34.80;;;18.33;;
21274;SDS011;36472;52.170;20.884;2023-11-19T06:12:09;30.60;;;16.90;;
21274;SDS011;36472;52.170;20.884;2023-11-19T06:14:39;32.17;;;16.23;;
21274;SDS011;36472;52.170;20.884;2023-11-19T06:17:08;31.60;;;16.48;;
21274;SDS011;36472;52.170;20.884;2023-11-19T06:19:39;26.77;;;15.63;;
21274;SDS011;36472;52.170;20.884;2023-11-19T06:22:09;31.05;;;15.88;;
21274;SDS011;36472;52.170;20.884;2023-11-19T06:24:37;26.10;;;14.52;;
21274;SDS011;36472;52.170;20.884;2023-11-19T06:27:08;25.35;;;14.93;;
21274;SDS011;36472;52.170;20.884;2023-11-19T06:29:37;25.10;;;13.57;;
21274;SDS011;36472;52.170;20.884;2023-11-19T06:32:08;26.67;;;13.55;;
21274;SDS011;36472;52.170;20.884;2023-11-19T06:34:41;23.63;;;13.10;;
21274;SDS011;36472;52.170;20.884;2023-11-19T06:37:10;24.83;;;13.45;;
21274;SDS011;36472;52.170;20.884;2023-11-19T06:39:39;21.63;;;12.20;;
21274;SDS011;36472;52.170;20.884;2023-11-19T06:42:08;21.67;;;12.90;;
21274;SDS011;36472;52.170;20.884;2023-11-19T06:44:37;18.70;;;10.68;;
21274;SDS011;36472;52.170;20.884;2023-11-19T06:47:06;45.67;;;26.55;;
21274;SDS011;36472;52.170;20.884;2023-11-19T06:49:35;20.00;;;12.10;;
21274;SDS011;36472;52.170;20.884;2023-11-19T06:52:06;47.08;;;27.83;;
21274;SDS011;36472;52.170;20.884;2023-11-19T06:54:35;17.45;;;10.60;;
21274;SDS011;36472;52.170;20.884;2023-11-19T06:57:04;19.20;;;12.80;;
21274;SDS011;36472;52.170;20.884;2023-11-19T06:59:33;23.98;;;17.90;;
21274;SDS011;36472;52.170;20.884;2023-11-19T07:02:03;27.10;;;22.17;;
21274;SDS011;36472;52.170;20.884;2023-11-19T07:04:32;11.25;;;8.20;;
21274;SDS011;36472;52.170;20.884;2023-11-19T07:07:02;18.77;;;11.77;;
21274;SDS011;36472;52.170;20.884;2023-11-19T07:09:33;12.80;;;8.70;;
21274;SDS011;36472;52.170;20.884;2023-11-19T07:12:03;11.95;;;8.63;;
21274;SDS011;36472;52.170;20.884;2023-11-19T07:14:33;15.43;;;10.82;;
21274;SDS011;36472;52.170;20.884;2023-11-19T07:17:02;14.57;;;10.00;;
21274;SDS011;36472;52.170;20.884;2023-11-19T07:19:31;14.43;;;10.10;;
21274;SDS011;36472;52.170;20.884;2023-11-19T07:22:02;17.08;;;11.18;;
21274;SDS011;36472;52.170;20.884;2023-11-19T07:24:34;13.60;;;10.45;;
21274;SDS011;36472;52.170;20.884;2023-11-19T07:27:03;15.10;;;10.93;;
21274;SDS011;36472;52.170;20.884;2023-11-19T07:29:33;16.13;;;10.90;;
21274;SDS011;36472;52.170;20.884;2023-11-19T07:32:05;16.90;;;12.18;;
21274;SDS011;36472;52.170;20.884;2023-11-19T07:34:35;15.25;;;10.23;;
21274;SDS011;36472;52.170;20.884;2023-11-19T07:37:04;14.35;;;10.55;;
21274;SDS011;36472;52.170;20.884;2023-11-19T07:39:35;15.23;;;10.53;;
21274;SDS011;36472;52.170;20.884;2023-11-19T07:42:08;14.15;;;10.35;;
21274;SDS011;36472;52.170;20.884;2023-11-19T07:44:37;15.63;;;10.98;;
21274;SDS011;36472;52.170;20.884;2023-11-19T07:47:06;17.02;;;12.15;;
21274;SDS011;36472;52.170;20.884;2023-11-19T07:49:35;13.68;;;9.10;;
21274;SDS011;36472;52.170;20.884;2023-11-19T07:52:05;14.27;;;10.35;;
21274;SDS011;36472;52.170;20.884;2023-11-19T07:54:49;16.58;;;9.75;;
21274;SDS011;36472;52.170;20.884;2023-11-19T07:57:18;15.48;;;10.77;;
21274;SDS011;36472;52.170;20.884;2023-11-19T07:59:47;15.30;;;10.77;;
21274;SDS011;36472;52.170;20.884;2023-11-19T08:02:17;15.35;;;10.30;;
21274;SDS011;36472;52.170;20.884;2023-11-19T08:04:46;16.77;;;10.93;;
21274;SDS011;36472;52.170;20.884;2023-11-19T08:07:19;20.75;;;14.27;;
21274;SDS011;36472;52.170;20.884;2023-11-19T08:09:49;17.70;;;13.13;;
21274;SDS011;36472;52.170;20.884;2023-11-19T08:12:18;14.15;;;9.93;;
21274;SDS011;36472;52.170;20.884;2023-11-19T08:14:47;17.00;;;12.00;;
21274;SDS011;36472;52.170;20.884;2023-11-19T08:17:16;18.20;;;12.00;;
21274;SDS011;36472;52.170;20.884;2023-11-19T08:19:45;19.35;;;13.32;;
21274;SDS011;36472;52.170;20.884;2023-11-19T08:22:14;19.27;;;12.60;;
21274;SDS011;36472;52.170;20.884;2023-11-19T08:24:43;17.50;;;11.65;;
21274;SDS011;36472;52.170;20.884;2023-11-19T08:27:14;18.67;;;13.05;;
21274;SDS011;36472;52.170;20.884;2023-11-19T08:29:43;17.65;;;12.02;;
21274;SDS011;36472;52.170;20.884;2023-11-19T08:32:12;17.73;;;12.07;;
21274;SDS011;36472;52.170;20.884;2023-11-19T08:34:41;17.77;;;11.73;;
21274;SDS011;36472;52.170;20.884;2023-11-19T08:37:10;20.83;;;12.10;;
21274;SDS011;36472;52.170;20.884;2023-11-19T08:39:39;19.60;;;12.75;;
21274;SDS011;36472;52.170;20.884;2023-11-19T08:42:10;19.40;;;12.57;;
21274;SDS011;36472;52.170;20.884;2023-11-19T08:44:40;21.45;;;13.00;;
21274;SDS011;36472;52.170;20.884;2023-11-19T08:47:11;19.10;;;13.05;;
21274;SDS011;36472;52.170;20.884;2023-11-19T08:49:40;20.92;;;13.05;;
21274;SDS011;36472;52.170;20.884;2023-11-19T08:52:09;17.88;;;11.13;;
21274;SDS011;36472;52.170;20.884;2023-11-19T08:54:38;19.55;;;13.05;;
21274;SDS011;36472;52.170;20.884;2023-11-19T08:57:11;17.63;;;13.15;;
21274;SDS011;36472;52.170;20.884;2023-11-19T08:59:41;18.75;;;12.93;;
21274;SDS011;36472;52.170;20.884;2023-11-19T09:02:11;16.33;;;11.23;;
21274;SDS011;36472;52.170;20.884;2023-11-19T09:04:40;19.80;;;13.43;;
21274;SDS011;36472;52.170;20.884;2023-11-19T09:07:09;19.95;;;13.20;;
21274;SDS011;36472;52.170;20.884;2023-11-19T09:09:38;18.73;;;12.75;;
21274;SDS011;36472;52.170;20.884;2023-11-19T09:12:07;18.92;;;11.60;;
21274;SDS011;36472;52.170;20.884;2023-11-19T09:14:36;20.02;;;12.80;;
21274;SDS011;36472;52.170;20.884;2023-11-19T09:17:06;20.08;;;13.20;;
21274;SDS011;36472;52.170;20.884;2023-11-19T09:19:36;19.23;;;12.90;;
21274;SDS011;36472;52.170;20.884;2023-11-19T09:22:05;18.42;;;13.15;;
21274;SDS011;36472;52.170;20.884;2023-11-19T09:24:34;22.50;;;13.90;;
21274;SDS011;36472;52.170;20.884;2023-11-19T09:27:04;25.92;;;15.82;;
21274;SDS011;36472;52.170;20.884;2023-11-19T09:29:33;23.08;;;15.20;;
21274;SDS011;36472;52.170;20.884;2023-11-19T09:32:04;20.67;;;12.95;;
21274;SDS011;36472;52.170;20.884;2023-11-19T09:34:35;22.38;;;15.63;;
21274;SDS011;36472;52.170;20.884;2023-11-19T09:37:04;19.60;;;12.25;;
21274;SDS011;36472;52.170;20.884;2023-11-19T09:39:48;22.10;;;14.50;;
21274;SDS011;36472;52.170;20.884;2023-11-19T09:42:17;21.15;;;14.43;;
21274;SDS011;36472;52.170;20.884;2023-11-19T09:44:46;23.48;;;16.58;;
21274;SDS011;36472;52.170;20.884;2023-11-19T09:47:18;25.45;;;15.07;;
21274;SDS011;36472;52.170;20.884;2023-11-19T09:49:48;19.48;;;13.25;;
21274;SDS011;36472;52.170;20.884;2023-11-19T09:52:18;24.63;;;15.63;;
21274;SDS011;36472;52.170;20.884;2023-11-19T09:54:47;19.13;;;13.18;;
21274;SDS011;36472;52.170;20.884;2023-11-19T09:57:16;21.30;;;14.23;;
21274;SDS011;36472;52.170;20.884;2023-11-19T09:59:45;20.77;;;13.77;;
21274;SDS011;36472;52.170;20.884;2023-11-19T10:02:16;19.02;;;13.23;;
21274;SDS011;36472;52.170;20.884;2023-11-19T10:04:47;19.75;;;13.07;;
21274;SDS011;36472;52.170;20.884;2023-11-19T10:07:19;21.45;;;13.10;;
21274;SDS011;36472;52.170;20.884;2023-11-19T10:09:52;21.73;;;13.35;;
21274;SDS011;36472;52.170;20.884;2023-11-19T10:12:21;22.10;;;14.13;;
21274;SDS011;36472;52.170;20.884;2023-11-19T10:14:50;23.83;;;14.70;;
21274;SDS011;36472;52.170;20.884;2023-11-19T10:17:21;22.73;;;14.95;;
21274;SDS011;36472;52.170;20.884;2023-11-19T10:19:50;21.75;;;16.10;;
21274;SDS011;36472;52.170;20.884;2023-11-19T10:22:19;25.38;;;15.15;;
21274;SDS011;36472;52.170;20.884;2023-11-19T10:24:51;23.77;;;15.13;;
21274;SDS011;36472;52.170;20.884;2023-11-19T10:27:23;22.85;;;12.90;;
21274;SDS011;36472;52.170;20.884;2023-11-19T10:29:53;23.00;;;13.57;;
21274;SDS011;36472;52.170;20.884;2023-11-19T10:32:24;26.95;;;15.63;;
21274;SDS011;36472;52.170;20.884;2023-11-19T10:35:03;22.52;;;15.27;;
21274;SDS011;36472;52.170;20.884;2023-11-19T10:37:34;23.73;;;16.25;;
21274;SDS011;36472;52.170;20.884;2023-11-19T10:40:05;23.67;;;15.07;;
21274;SDS011;36472;52.170;20.884;2023-11-19T10:42:37;25.70;;;15.63;;
21274;SDS011;36472;52.170;20.884;2023-11-19T10:45:16;20.42;;;14.23;;
21274;SDS011;36472;52.170;20.884;2023-11-19T10:47:53;29.17;;;18.73;;
21274;SDS011;36472;52.170;20.884;2023-11-19T10:50:25;22.88;;;15.52;;
21274;SDS011;36472;52.170;20.884;2023-11-19T10:52:55;23.60;;;15.52;;
21274;SDS011;36472;52.170;20.884;2023-11-19T10:55:27;21.48;;;13.88;;
21274;SDS011;36472;52.170;20.884;2023-11-19T10:57:59;23.23;;;14.55;;
21274;SDS011;36472;52.170;20.884;2023-11-19T11:00:30;21.88;;;13.77;;
21274;SDS011;36472;52.170;20.884;2023-11-19T11:03:10;21.88;;;14.32;;
21274;SDS011;36472;52.170;20.884;2023-11-19T11:05:46;25.17;;;15.60;;
21274;SDS011;36472;52.170;20.884;2023-11-19T11:08:16;28.13;;;16.52;;
21274;SDS011;36472;52.170;20.884;2023-11-19T11:10:48;30.63;;;16.25;;
21274;SDS011;36472;52.170;20.884;2023-11-19T11:13:24;29.73;;;17.38;;
21274;SDS011;36472;52.170;20.884;2023-11-19T11:15:56;23.92;;;14.02;;
21274;SDS011;36472;52.170;20.884;2023-11-19T11:18:28;23.58;;;14.50;;
21274;SDS011;36472;52.170;20.884;2023-11-19T11:20:58;25.98;;;15.55;;
21274;SDS011;36472;52.170;20.884;2023-11-19T11:27:12;19.80;;;13.45;;
21274;SDS011;36472;52.170;20.884;2023-11-19T11:30:09;24.45;;;13.70;;
21274;SDS011;36472;52.170;20.884;2023-11-19T11:32:59;24.05;;;15.52;;
21274;SDS011;36472;52.170;20.884;2023-11-19T11:35:52;21.25;;;13.18;;
21274;SDS011;36472;52.170;20.884;2023-11-19T11:38:36;23.45;;;16.15;;
21274;SDS011;36472;52.170;20.884;2023-11-19T11:41:14;22.95;;;15.43;;
21274;SDS011;36472;52.170;20.884;2023-11-19T11:43:47;24.35;;;15.35;;
21274;SDS011;36472;52.170;20.884;2023-11-19T11:49:25;25.63;;;14.30;;
21274;SDS011;36472;52.170;20.884;2023-11-19T11:51:59;22.05;;;13.68;;
21274;SDS011;36472;52.170;20.884;2023-11-19T11:54:30;24.35;;;15.55;;
21274;SDS011;36472;52.170;20.884;2023-11-19T11:57:08;23.67;;;14.02;;
21274;SDS011;36472;52.170;20.884;2023-11-19T11:59:47;23.20;;;14.52;;
21274;SDS011;36472;52.170;20.884;2023-11-19T12:02:18;24.73;;;15.25;;
21274;SDS011;36472;52.170;20.884;2023-11-19T12:04:50;27.08;;;16.17;;
21274;SDS011;36472;52.170;20.884;2023-11-19T12:07:23;28.35;;;17.52;;
21274;SDS011;36472;52.170;20.884;2023-11-19T12:09:53;25.92;;;16.75;;
21274;SDS011;36472;52.170;20.884;2023-11-19T12:12:35;28.35;;;18.33;;
21274;SDS011;36472;52.170;20.884;2023-11-19T12:15:07;26.67;;;15.48;;
21274;SDS011;36472;52.170;20.884;2023-11-19T12:17:50;24.23;;;15.95;;
21274;SDS011;36472;52.170;20.884;2023-11-19T12:20:20;24.60;;;15.10;;
21274;SDS011;36472;52.170;20.884;2023-11-19T12:22:54;24.90;;;14.65;;
21274;SDS011;36472;52.170;20.884;2023-11-19T12:25:24;25.15;;;14.82;;
21274;SDS011;36472;52.170;20.884;2023-11-19T12:27:53;24.73;;;15.70;;
21274;SDS011;36472;52.170;20.884;2023-11-19T12:30:23;25.27;;;15.60;;
21274;SDS011;36472;52.170;20.884;2023-11-19T12:32:54;29.70;;;16.15;;
21274;SDS011;36472;52.170;20.884;2023-11-19T12:35:23;34.83;;;18.30;;
21274;SDS011;36472;52.170;20.884;2023-11-19T12:37:55;32.85;;;17.17;;
21274;SDS011;36472;52.170;20.884;2023-11-19T12:40:24;35.40;;;19.05;;
21274;SDS011;36472;52.170;20.884;2023-11-19T12:42:56;27.92;;;16.33;;
21274;SDS011;36472;52.170;20.884;2023-11-19T12:45:33;27.15;;;16.65;;
21274;SDS011;36472;52.170;20.884;2023-11-19T12:48:07;22.15;;;13.68;;
21274;SDS011;36472;52.170;20.884;2023-11-19T12:50:50;24.58;;;15.05;;
21274;SDS011;36472;52.170;20.884;2023-11-19T12:53:22;23.10;;;15.23;;
21274;SDS011;36472;52.170;20.884;2023-11-19T12:55:52;22.77;;;14.80;;
21274;SDS011;36472;52.170;20.884;2023-11-19T12:58:29;24.15;;;15.18;;
21274;SDS011;36472;52.170;20.884;2023-11-19T13:00:59;26.02;;;14.75;;
21274;SDS011;36472;52.170;20.884;2023-11-19T13:03:30;25.08;;;15.80;;
21274;SDS011;36472;52.170;20.884;2023-11-19T13:06:03;23.98;;;15.63;;
21274;SDS011;36472;52.170;20.884;2023-11-19T13:08:37;27.50;;;15.50;;
21274;SDS011;36472;52.170;20.884;2023-11-19T13:11:07;25.70;;;16.15;;
21274;SDS011;36472;52.170;20.884;2023-11-19T13:13:56;25.85;;;16.05;;
21274;SDS011;36472;52.170;20.884;2023-11-19T13:16:26;28.60;;;16.05;;
21274;SDS011;36472;52.170;20.884;2023-11-19T13:18:57;28.20;;;18.15;;
21274;SDS011;36472;52.170;20.884;2023-11-19T13:21:27;25.10;;;15.63;;
21274;SDS011;36472;52.170;20.884;2023-11-19T13:23:58;28.13;;;17.52;;
21274;SDS011;36472;52.170;20.884;2023-11-19T13:26:27;26.77;;;16.35;;
21274;SDS011;36472;52.170;20.884;2023-11-19T13:28:56;28.73;;;16.92;;
21274;SDS011;36472;52.170;20.884;2023-11-19T13:31:25;28.40;;;18.15;;
21274;SDS011;36472;52.170;20.884;2023-11-19T13:33:55;27.60;;;16.65;;
21274;SDS011;36472;52.170;20.884;2023-11-19T13:36:25;26.73;;;15.13;;
21274;SDS011;36472;52.170;20.884;2023-11-19T13:38:54;27.02;;;15.60;;
21274;SDS011;36472;52.170;20.884;2023-11-19T13:41:28;25.77;;;15.27;;
21274;SDS011;36472;52.170;20.884;2023-11-19T13:43:57;24.23;;;16.15;;
21274;SDS011;36472;52.170;20.884;2023-11-19T13:46:26;24.45;;;15.35;;
21274;SDS011;36472;52.170;20.884;2023-11-19T13:48:55;24.10;;;14.85;;
21274;SDS011;36472;52.170;20.884;2023-11-19T13:51:24;26.40;;;16.48;;
21274;SDS011;36472;52.170;20.884;2023-11-19T13:53:53;23.77;;;14.52;;
21274;SDS011;36472;52.170;20.884;2023-11-19T13:56:22;26.80;;;16.40;;
21274;SDS011;36472;52.170;20.884;2023-11-19T13:58:52;26.42;;;16.65;;
21274;SDS011;36472;52.170;20.884;2023-11-19T14:01:21;24.33;;;15.07;;
21274;SDS011;36472;52.170;20.884;2023-11-19T14:03:52;30.65;;;17.20;;
21274;SDS011;36472;52.170;20.884;2023-11-19T14:06:21;27.77;;;15.73;;
21274;SDS011;36472;52.170;20.884;2023-11-19T14:08:51;24.63;;;15.63;;
21274;SDS011;36472;52.170;20.884;2023-11-19T14:11:21;29.63;;;16.45;;
21274;SDS011;36472;52.170;20.884;2023-11-19T14:13:50;26.02;;;16.90;;
21274;SDS011;36472;52.170;20.884;2023-11-19T14:16:20;26.70;;;15.45;;
21274;SDS011;36472;52.170;20.884;2023-11-19T14:18:49;27.10;;;17.58;;
21274;SDS011;36472;52.170;20.884;2023-11-19T14:21:18;29.20;;;18.55;;
21274;SDS011;36472;52.170;20.884;2023-11-19T14:23:47;26.10;;;15.52;;
21274;SDS011;36472;52.170;20.884;2023-11-19T14:26:16;30.35;;;18.60;;
21274;SDS011;36472;52.170;20.884;2023-11-19T14:28:45;33.40;;;20.55;;
21274;SDS011;36472;52.170;20.884;2023-11-19T14:31:17;36.28;;;21.95;;
21274;SDS011;36472;52.170;20.884;2023-11-19T14:33:48;35.08;;;20.25;;
21274;SDS011;36472;52.170;20.884;2023-11-19T14:36:17;33.15;;;18.48;;